createdAt,value
2018-06-29T00:01:38.983Z,1.87
2018-06-29T00:04:07.038Z,1.60
2018-06-29T00:06:35.128Z,1.73
2018-06-29T00:09:04.521Z,2.23
2018-06-29T00:11:32.560Z,1.90
2018-06-29T00:14:00.593Z,2.10
2018-06-29T00:16:28.672Z,2.70
2018-06-29T00:18:56.712Z,1.73
2018-06-29T00:21:24.760Z,2.10
2018-06-29T00:23:52.813Z,2.47
2018-06-29T00:26:20.860Z,2.20
2018-06-29T00:28:48.895Z,2.60
2018-06-29T00:31:16.953Z,2.83
2018-06-29T00:33:45.007Z,2.03
2018-06-29T00:36:13.333Z,2.50
2018-06-29T00:38:41.198Z,3.00
2018-06-29T00:41:09.280Z,2.90
2018-06-29T00:43:37.370Z,2.70
2018-06-29T00:46:05.217Z,3.33
2018-06-29T00:48:33.256Z,2.50
2018-06-29T00:51:01.301Z,2.13
2018-06-29T00:53:30.433Z,3.13
2018-06-29T00:55:58.485Z,2.30
2018-06-29T00:58:26.856Z,2.67
2018-06-29T01:00:54.912Z,2.07
2018-06-29T01:03:22.944Z,2.00
2018-06-29T01:05:50.992Z,2.50
2018-06-29T01:08:19.072Z,2.50
2018-06-29T01:10:47.096Z,2.07
2018-06-29T01:13:15.153Z,2.50
2018-06-29T01:15:49.713Z,2.00
2018-06-29T01:18:17.769Z,2.07
2018-06-29T01:20:46.528Z,2.23
2018-06-29T01:23:14.573Z,3.17
2018-06-29T01:25:42.493Z,1.97
2018-06-29T01:28:10.540Z,2.30
2018-06-29T01:30:38.574Z,2.60
2018-06-29T01:33:13.105Z,2.27
2018-06-29T01:35:41.190Z,2.47
2018-06-29T01:38:09.238Z,2.80
2018-06-29T01:40:37.314Z,2.57
2018-06-29T01:43:05.372Z,2.70
2018-06-29T01:45:33.438Z,2.40
2018-06-29T01:48:01.528Z,2.63
2018-06-29T01:50:29.585Z,2.43
2018-06-29T01:52:57.617Z,2.50
2018-06-29T01:55:25.665Z,2.90
2018-06-29T01:57:53.812Z,3.37
2018-06-29T02:00:21.887Z,2.93
2018-06-29T02:02:49.961Z,2.43
2018-06-29T02:05:17.794Z,2.13
2018-06-29T02:07:45.826Z,2.80
2018-06-29T02:10:13.900Z,3.43
2018-06-29T02:12:41.936Z,2.77
2018-06-29T02:15:10.016Z,3.13
2018-06-29T02:17:38.121Z,2.50
2018-06-29T02:20:06.188Z,2.87
2018-06-29T02:22:34.265Z,2.77
2018-06-29T02:25:02.304Z,2.80
2018-06-29T02:27:30.329Z,3.13
2018-06-29T02:29:58.461Z,4.03
2018-06-29T02:32:26.517Z,2.97
2018-06-29T02:34:54.557Z,3.33
2018-06-29T02:37:22.722Z,2.67
2018-06-29T02:39:50.745Z,2.83
2018-06-29T02:42:18.801Z,2.80
2018-06-29T02:44:46.820Z,3.23
2018-06-29T02:47:14.881Z,3.70
2018-06-29T02:49:42.933Z,2.90
2018-06-29T02:52:11.033Z,3.47
2018-06-29T02:54:39.118Z,4.30
2018-06-29T02:57:07.149Z,3.87
2018-06-29T02:59:35.567Z,4.63
2018-06-29T03:02:03.677Z,4.23
2018-06-29T03:04:31.777Z,3.83
2018-06-29T03:06:59.851Z,3.67
2018-06-29T03:09:27.997Z,4.37
2018-06-29T03:11:56.053Z,4.77
2018-06-29T03:14:24.076Z,4.40
2018-06-29T03:16:52.164Z,4.03
2018-06-29T03:19:20.193Z,4.67
2018-06-29T03:21:48.160Z,5.13
2018-06-29T03:24:16.196Z,4.90
2018-06-29T03:26:44.281Z,4.50
2018-06-29T03:29:12.319Z,5.23
2018-06-29T03:31:40.368Z,5.87
2018-06-29T03:34:08.229Z,6.57
2018-06-29T03:36:36.272Z,5.10
2018-06-29T03:39:06.704Z,5.60
2018-06-29T03:41:34.768Z,6.07
2018-06-29T03:44:02.865Z,5.83
2018-06-29T03:46:31.002Z,6.00
2018-06-29T03:48:59.037Z,6.50
2018-06-29T03:51:27.109Z,5.87
2018-06-29T03:53:55.148Z,5.77
2018-06-29T03:56:23.181Z,5.87
2018-06-29T03:58:51.242Z,5.23
2018-06-29T04:01:19.349Z,5.70
2018-06-29T04:03:47.418Z,6.23
2018-06-29T04:06:15.441Z,6.17
2018-06-29T04:08:43.488Z,5.63
2018-06-29T04:11:11.533Z,5.83
2018-06-29T04:13:39.593Z,6.27
2018-06-29T04:16:07.661Z,6.63
2018-06-29T04:18:35.741Z,5.87
2018-06-29T04:21:03.788Z,7.23
2018-06-29T04:23:31.830Z,6.57
2018-06-29T04:25:59.915Z,6.30
2018-06-29T04:28:27.978Z,6.67
2018-06-29T04:30:55.885Z,6.20
2018-06-29T04:33:24.105Z,5.37
2018-06-29T04:35:52.145Z,5.50
2018-06-29T04:38:20.365Z,6.43
2018-06-29T04:40:48.292Z,6.67
2018-06-29T04:43:16.321Z,6.17
2018-06-29T04:45:44.397Z,6.37
2018-06-29T04:48:12.444Z,6.33
2018-06-29T04:50:40.545Z,6.07
2018-06-29T04:53:08.470Z,5.53
2018-06-29T04:55:36.507Z,5.40
2018-06-29T04:58:04.826Z,4.87
2018-06-29T05:00:32.888Z,5.23
2018-06-29T05:03:00.920Z,6.00
2018-06-29T05:05:28.956Z,4.60
2018-06-29T05:07:57.012Z,4.27
2018-06-29T05:10:25.083Z,4.17
2018-06-29T05:12:53.175Z,4.27
2018-06-29T05:15:21.485Z,4.07
2018-06-29T05:17:49.525Z,4.80
2018-06-29T05:20:17.598Z,3.77
2018-06-29T05:22:45.648Z,3.10
2018-06-29T05:25:13.714Z,2.60
2018-06-29T05:27:41.757Z,3.70
2018-06-29T05:30:10.238Z,3.33
2018-06-29T05:32:38.429Z,3.03
2018-06-29T05:35:06.513Z,2.47
2018-06-29T05:37:34.577Z,2.93
2018-06-29T05:40:02.671Z,2.40
2018-06-29T05:42:30.779Z,2.77
2018-06-29T05:44:58.900Z,3.03
2018-06-29T05:47:27.312Z,2.60
2018-06-29T05:49:55.409Z,2.97
2018-06-29T05:52:30.130Z,3.00
2018-06-29T05:55:00.412Z,2.43
2018-06-29T05:57:28.502Z,2.30
2018-06-29T05:59:56.585Z,2.73
2018-06-29T06:02:24.661Z,2.63
2018-06-29T06:04:52.724Z,2.90
2018-06-29T06:07:25.314Z,2.77
2018-06-29T06:09:53.401Z,2.13
2018-06-29T06:12:21.684Z,2.23
2018-06-29T06:14:56.275Z,2.13
2018-06-29T06:17:24.328Z,2.87
2018-06-29T06:20:04.008Z,2.73
2018-06-29T06:22:32.289Z,2.70
2018-06-29T06:25:00.468Z,2.50
2018-06-29T06:27:28.690Z,2.73
2018-06-29T06:29:57.069Z,1.73
2018-06-29T06:35:10.924Z,1.97
2018-06-29T06:37:38.965Z,2.17
2018-06-29T06:40:07.139Z,2.10
2018-06-29T06:42:35.266Z,2.10
2018-06-29T06:45:03.473Z,2.20
2018-06-29T06:47:31.521Z,1.80
2018-06-29T06:50:01.140Z,2.90
2018-06-29T06:52:32.377Z,1.80
2018-06-29T06:55:01.617Z,1.87
2018-06-29T07:00:10.546Z,2.20
2018-06-29T07:02:38.950Z,2.13
2018-06-29T07:05:10.193Z,1.63
2018-06-29T07:07:43.038Z,2.03
2018-06-29T07:10:11.441Z,1.93
2018-06-29T07:12:39.900Z,1.90
2018-06-29T07:15:09.553Z,1.67
2018-06-29T07:17:37.645Z,1.50
2018-06-29T07:20:07.010Z,1.80
2018-06-29T07:22:35.056Z,1.60
2018-06-29T07:25:07.851Z,1.50
2018-06-29T07:27:36.116Z,1.70
2018-06-29T07:30:04.623Z,1.83
2018-06-29T07:32:32.610Z,1.63
2018-06-29T07:35:00.691Z,1.97
2018-06-29T07:37:28.782Z,2.57
2018-06-29T07:39:56.834Z,2.67
2018-06-29T07:42:24.884Z,2.13
2018-06-29T07:44:52.954Z,1.70
2018-06-29T07:47:21.005Z,1.73
2018-06-29T07:49:49.068Z,1.73
2018-06-29T07:52:17.197Z,2.03
2018-06-29T07:54:45.230Z,1.50
2018-06-29T07:57:13.319Z,1.50
2018-06-29T07:59:41.370Z,1.40
2018-06-29T08:02:09.447Z,1.73
2018-06-29T08:04:37.515Z,1.70
2018-06-29T08:07:05.688Z,1.70
2018-06-29T08:09:33.760Z,2.17
2018-06-29T08:12:01.842Z,1.70
2018-06-29T08:14:29.946Z,2.20
2018-06-29T08:16:58.100Z,1.80
2018-06-29T08:19:25.976Z,1.87
2018-06-29T08:21:54.064Z,2.57
2018-06-29T08:24:22.194Z,2.10
2018-06-29T08:26:50.218Z,2.50
2018-06-29T08:29:18.359Z,2.20
2018-06-29T08:31:46.400Z,1.93
2018-06-29T08:34:14.469Z,3.23
2018-06-29T08:36:42.526Z,2.93
2018-06-29T08:39:10.565Z,2.50
2018-06-29T08:41:38.647Z,2.43
2018-06-29T08:44:06.701Z,2.30
2018-06-29T08:46:34.741Z,2.17
2018-06-29T08:49:02.792Z,2.30
2018-06-29T08:51:30.845Z,1.80
2018-06-29T08:53:58.901Z,2.17
2018-06-29T08:56:26.973Z,1.87
2018-06-29T08:58:55.037Z,2.17
2018-06-29T09:01:23.676Z,1.60
2018-06-29T09:03:51.753Z,2.20
2018-06-29T09:06:19.822Z,2.10
2018-06-29T09:08:47.913Z,1.67
2018-06-29T09:11:16.001Z,1.83
2018-06-29T09:13:44.043Z,1.70
2018-06-29T09:16:12.115Z,1.80
2018-06-29T09:18:40.223Z,2.43
2018-06-29T09:21:08.285Z,1.70
2018-06-29T09:23:36.344Z,2.20
2018-06-29T09:26:04.501Z,2.60
2018-06-29T09:28:32.548Z,3.03
2018-06-29T09:31:00.605Z,3.13
2018-06-29T09:33:28.739Z,2.20
2018-06-29T09:35:56.797Z,2.00
2018-06-29T09:38:24.885Z,2.50
2018-06-29T09:40:53.004Z,1.93
2018-06-29T09:43:21.128Z,2.13
2018-06-29T09:45:49.193Z,1.80
2018-06-29T09:48:17.268Z,1.90
2018-06-29T09:50:45.313Z,2.30
2018-06-29T09:53:13.446Z,1.67
2018-06-29T09:55:41.477Z,1.90
2018-06-29T09:58:09.540Z,2.20
2018-06-29T10:00:37.619Z,2.13
2018-06-29T10:03:05.810Z,1.70
2018-06-29T10:05:33.856Z,2.20
2018-06-29T10:08:01.910Z,1.90
2018-06-29T10:10:30.010Z,2.23
2018-06-29T10:12:58.057Z,2.70
2018-06-29T10:15:26.111Z,2.50
2018-06-29T10:17:54.246Z,2.60
2018-06-29T10:20:22.341Z,1.97
2018-06-29T10:22:50.392Z,2.33
2018-06-29T10:25:18.470Z,2.03
2018-06-29T10:27:46.497Z,1.77
2018-06-29T10:30:14.578Z,1.60
2018-06-29T10:32:42.617Z,2.13
2018-06-29T10:35:10.730Z,2.20
2018-06-29T10:37:38.877Z,2.23
2018-06-29T10:40:07.240Z,1.77
2018-06-29T10:42:35.309Z,1.60
2018-06-29T10:45:04.248Z,2.03
2018-06-29T10:47:34.131Z,2.40
2018-06-29T10:50:02.240Z,1.60
2018-06-29T10:52:30.320Z,1.90
2018-06-29T10:54:58.365Z,1.80
2018-06-29T10:57:26.548Z,1.70
2018-06-29T10:59:54.613Z,1.90
2018-06-29T11:02:22.717Z,2.33
2018-06-29T11:04:50.792Z,2.43
2018-06-29T11:07:18.825Z,2.37
2018-06-29T11:09:46.983Z,1.93
2018-06-29T11:12:15.025Z,1.80
2018-06-29T11:14:43.120Z,1.63
2018-06-29T11:17:11.232Z,1.70
2018-06-29T11:19:56.836Z,2.20
2018-06-29T11:22:25.062Z,1.70
2018-06-29T11:24:53.108Z,2.00
2018-06-29T11:27:21.169Z,1.77
2018-06-29T11:29:49.212Z,1.70
2018-06-29T11:32:17.288Z,1.93
2018-06-29T11:34:45.496Z,2.10
2018-06-29T11:37:13.729Z,1.53
2018-06-29T11:39:41.768Z,2.17
2018-06-29T11:42:09.850Z,1.70
2018-06-29T11:44:37.901Z,1.67
2018-06-29T11:47:05.929Z,2.10
2018-06-29T11:49:34.026Z,1.63
2018-06-29T11:52:02.107Z,2.00
2018-06-29T11:54:30.197Z,1.70
2018-06-29T11:56:58.244Z,1.33
2018-06-29T11:59:26.276Z,2.10
2018-06-29T12:01:54.316Z,1.83
2018-06-29T12:04:22.414Z,1.97
2018-06-29T12:06:50.466Z,2.20
2018-06-29T12:09:19.586Z,2.23
2018-06-29T12:11:47.718Z,1.63
2018-06-29T12:14:15.556Z,1.97
2018-06-29T12:16:43.622Z,1.93
2018-06-29T12:19:11.666Z,2.03
2018-06-29T12:21:39.765Z,2.00
2018-06-29T12:24:07.797Z,1.97
2018-06-29T12:26:35.886Z,2.10
2018-06-29T12:29:03.929Z,2.20
2018-06-29T12:31:31.989Z,2.60
2018-06-29T12:34:00.014Z,2.03
2018-06-29T12:36:28.085Z,1.97
2018-06-29T12:38:56.128Z,2.57
2018-06-29T12:41:24.193Z,2.10
2018-06-29T12:43:52.393Z,2.37
2018-06-29T12:46:20.433Z,2.40
2018-06-29T12:48:48.596Z,2.63
2018-06-29T12:51:16.653Z,2.20
2018-06-29T12:53:44.721Z,2.10
2018-06-29T12:56:12.752Z,2.60
2018-06-29T12:58:40.871Z,2.40
2018-06-29T13:01:08.845Z,3.00
2018-06-29T13:03:37.892Z,3.37
2018-06-29T13:06:05.945Z,2.80
2018-06-29T13:08:34.000Z,2.70
2018-06-29T13:11:02.100Z,2.90
2018-06-29T13:13:30.142Z,3.03
2018-06-29T13:16:02.240Z,2.57
2018-06-29T13:18:30.721Z,2.63
2018-06-29T13:20:58.818Z,3.17
2018-06-29T13:23:27.575Z,3.97
2018-06-29T13:25:55.682Z,3.10
2018-06-29T13:28:23.835Z,3.37
2018-06-29T13:30:51.991Z,2.87
2018-06-29T13:33:20.756Z,3.13
2018-06-29T13:35:48.793Z,3.03
2018-06-29T13:38:16.850Z,3.27
2018-06-29T13:40:44.926Z,3.03
2018-06-29T13:43:12.965Z,2.83
2018-06-29T13:45:41.081Z,2.90
2018-06-29T13:48:09.765Z,2.97
2018-06-29T13:50:37.834Z,2.97
2018-06-29T13:53:05.947Z,2.70
2018-06-29T13:55:34.068Z,3.00
2018-06-29T13:58:02.755Z,2.77
2018-06-29T14:00:31.886Z,3.13
2018-06-29T14:02:59.924Z,3.90
2018-06-29T14:05:28.001Z,2.70
2018-06-29T14:07:56.097Z,2.93
2018-06-29T14:10:28.348Z,3.17
2018-06-29T14:12:56.433Z,3.27
2018-06-29T14:15:25.929Z,2.80
2018-06-29T14:17:54.039Z,2.80
2018-06-29T14:20:22.077Z,2.23
2018-06-29T14:22:58.084Z,2.47
2018-06-29T14:25:26.485Z,3.20
2018-06-29T14:27:54.845Z,2.77
2018-06-29T14:30:22.996Z,2.37
2018-06-29T14:32:53.719Z,2.63
2018-06-29T14:35:21.786Z,3.20
2018-06-29T14:37:51.305Z,2.90
2018-06-29T14:40:19.403Z,3.00
2018-06-29T14:42:47.509Z,2.60
2018-06-29T14:45:15.665Z,2.97
2018-06-29T14:47:43.713Z,2.90
2018-06-29T14:50:11.569Z,3.40
2018-06-29T14:52:39.665Z,2.90
2018-06-29T14:55:09.557Z,3.00
2018-06-29T14:57:37.802Z,3.37
2018-06-29T15:00:07.973Z,3.63
2018-06-29T15:02:36.037Z,2.93
2018-06-29T15:05:04.105Z,2.97
2018-06-29T15:07:32.169Z,3.73
2018-06-29T15:10:00.273Z,3.33
2018-06-29T15:12:28.380Z,3.70
2018-06-29T15:14:56.457Z,3.23
2018-06-29T15:17:24.549Z,3.93
2018-06-29T15:19:52.604Z,3.07
2018-06-29T15:22:20.808Z,3.17
2018-06-29T15:24:49.431Z,3.20
2018-06-29T15:27:17.501Z,3.67
2018-06-29T15:29:45.902Z,3.67
2018-06-29T15:32:15.502Z,4.10
2018-06-29T15:34:44.454Z,3.70
2018-06-29T15:37:13.400Z,4.27
2018-06-29T15:39:41.645Z,3.90
2018-06-29T15:42:09.957Z,3.83
2018-06-29T15:44:37.997Z,4.17
2018-06-29T15:47:06.377Z,3.63
2018-06-29T15:49:34.677Z,6.30
2018-06-29T15:52:02.821Z,4.77
2018-06-29T15:54:31.139Z,5.17
2018-06-29T15:57:00.047Z,4.33
2018-06-29T15:59:28.141Z,3.80
2018-06-29T16:01:56.197Z,4.83
2018-06-29T16:04:24.226Z,4.50
2018-06-29T16:06:52.309Z,4.63
2018-06-29T16:09:20.372Z,3.97
2018-06-29T16:11:48.430Z,4.03
2018-06-29T16:14:16.489Z,3.90
2018-06-29T16:16:44.573Z,4.00
2018-06-29T16:19:12.597Z,4.23
2018-06-29T16:21:40.704Z,4.30
2018-06-29T16:24:08.877Z,4.40
2018-06-29T16:26:37.056Z,3.80
2018-06-29T16:29:05.106Z,4.87
2018-06-29T16:31:33.272Z,4.27
2018-06-29T16:34:01.333Z,4.63
2018-06-29T16:36:29.365Z,4.40
2018-06-29T16:38:57.417Z,4.83
2018-06-29T16:41:25.465Z,4.03
2018-06-29T16:43:53.500Z,4.37
2018-06-29T16:46:21.618Z,4.60
2018-06-29T16:48:49.653Z,4.17
2018-06-29T16:51:17.786Z,4.70
2018-06-29T16:53:45.845Z,4.23
2018-06-29T16:56:13.916Z,5.00
2018-06-29T16:58:41.976Z,4.73
2018-06-29T17:01:10.056Z,4.97
2018-06-29T17:03:38.088Z,4.13
2018-06-29T17:06:06.152Z,4.80
2018-06-29T17:08:34.208Z,4.63
2018-06-29T17:11:02.249Z,4.60
2018-06-29T17:13:30.310Z,5.27
2018-06-29T17:15:58.348Z,5.07
2018-06-29T17:18:26.522Z,4.87
2018-06-29T17:20:54.585Z,5.90
2018-06-29T17:23:22.457Z,4.87
2018-06-29T17:25:50.368Z,5.10
2018-06-29T17:28:18.478Z,4.80
2018-06-29T17:30:46.543Z,4.93
2018-06-29T17:33:14.605Z,5.20
2018-06-29T17:35:42.633Z,6.10
2018-06-29T17:38:10.821Z,5.33
2018-06-29T17:40:38.931Z,4.83
2018-06-29T17:43:09.202Z,5.03
2018-06-29T17:45:37.232Z,5.30
2018-06-29T17:48:05.330Z,5.83
2018-06-29T17:50:34.944Z,5.00
2018-06-29T17:53:03.006Z,5.47
2018-06-29T17:55:31.061Z,4.83
2018-06-29T17:58:02.724Z,4.30
2018-06-29T18:00:30.805Z,5.33
2018-06-29T18:02:58.856Z,4.90
2018-06-29T18:05:26.913Z,4.87
2018-06-29T18:07:55.031Z,5.20
2018-06-29T18:10:23.106Z,5.43
2018-06-29T18:12:51.241Z,5.00
2018-06-29T18:15:19.220Z,5.17
2018-06-29T18:17:47.343Z,5.40
2018-06-29T18:20:15.366Z,4.80
2018-06-29T18:22:44.977Z,5.30
2018-06-29T18:25:12.874Z,6.03
2018-06-29T18:27:40.914Z,5.13
2018-06-29T18:30:09.498Z,4.60
2018-06-29T18:32:38.644Z,5.80
2018-06-29T18:35:06.712Z,5.87
2018-06-29T18:37:34.768Z,6.17
2018-06-29T18:40:02.628Z,5.83
2018-06-29T18:42:30.784Z,5.17
2018-06-29T18:44:58.828Z,4.97
2018-06-29T18:47:26.917Z,5.30
2018-06-29T18:49:55.053Z,6.00
2018-06-29T18:52:22.956Z,6.93
2018-06-29T18:54:51.093Z,5.83
2018-06-29T18:57:19.135Z,6.70
2018-06-29T18:59:47.286Z,4.90
2018-06-29T19:02:15.449Z,6.13
2018-06-29T19:04:43.608Z,6.47
2018-06-29T19:07:11.856Z,6.83
2018-06-29T19:09:39.936Z,6.70
2018-06-29T19:12:07.974Z,6.30
2018-06-29T19:14:36.148Z,6.83
2018-06-29T19:17:04.220Z,6.10
2018-06-29T19:19:32.289Z,5.90
2018-06-29T19:22:01.029Z,6.47
2018-06-29T19:24:29.105Z,6.70
2018-06-29T19:26:57.396Z,7.10
2018-06-29T19:29:25.448Z,6.10
2018-06-29T19:31:53.473Z,7.20
2018-06-29T19:34:21.832Z,7.63
2018-06-29T19:36:49.901Z,6.30
2018-06-29T19:39:17.944Z,6.37
2018-06-29T19:41:45.969Z,5.70
2018-06-29T19:44:16.201Z,6.70
2018-06-29T19:46:44.204Z,5.87
2018-06-29T19:49:12.244Z,6.03
2018-06-29T19:51:40.308Z,6.37
2018-06-29T19:54:08.400Z,6.67
2018-06-29T19:56:36.462Z,6.47
2018-06-29T19:59:05.624Z,7.10
2018-06-29T20:01:33.778Z,6.40
2018-06-29T20:04:01.808Z,5.30
2018-06-29T20:06:29.873Z,6.63
2018-06-29T20:08:57.957Z,6.13
2018-06-29T20:11:26.074Z,6.40
2018-06-29T20:13:54.222Z,5.87
2018-06-29T20:16:22.421Z,5.10
2018-06-29T20:18:52.454Z,6.60
2018-06-29T20:21:21.521Z,6.03
2018-06-29T20:23:49.654Z,5.80
2018-06-29T20:26:17.701Z,6.50
2018-06-29T20:28:45.891Z,6.03
2018-06-29T20:31:13.965Z,6.10
2018-06-29T20:33:42.168Z,5.63
2018-06-29T20:36:10.424Z,6.07
2018-06-29T20:38:38.529Z,5.03
2018-06-29T20:41:06.744Z,5.67
2018-06-29T20:43:34.940Z,5.50
2018-06-29T20:46:03.491Z,5.73
2018-06-29T20:48:31.899Z,6.07
2018-06-29T20:51:11.264Z,4.77
2018-06-29T20:53:39.478Z,4.17
2018-06-29T20:56:07.881Z,4.47
2018-06-29T20:58:40.503Z,3.57
2018-06-29T21:01:09.477Z,4.53
2018-06-29T21:03:38.070Z,3.10
2018-06-29T21:06:06.516Z,2.70
2018-06-29T21:08:35.166Z,2.80
2018-06-29T21:11:03.475Z,3.77
2018-06-29T21:13:33.100Z,2.47
2018-06-29T21:16:01.200Z,2.50
2018-06-29T21:18:31.030Z,2.00
2018-06-29T21:20:59.257Z,1.60
2018-06-29T21:23:27.472Z,2.03
2018-06-29T21:25:55.937Z,1.80
2018-06-29T21:28:24.132Z,1.80
2018-06-29T21:30:52.459Z,1.60
2018-06-29T21:33:20.836Z,1.33
2018-06-29T21:35:48.920Z,1.80
2018-06-29T21:38:16.974Z,1.10
2018-06-29T21:40:45.172Z,1.27
2018-06-29T21:43:17.866Z,1.40
2018-06-29T21:45:46.944Z,1.50
2018-06-29T21:48:15.817Z,1.23
2018-06-29T21:50:44.429Z,1.20
2018-06-29T21:53:12.544Z,1.40
2018-06-29T21:55:40.967Z,1.17
2018-06-29T21:58:09.041Z,1.47
2018-06-29T22:00:40.042Z,0.97
2018-06-29T22:03:08.713Z,1.00
2018-06-29T22:05:37.720Z,1.07
2018-06-29T22:08:06.445Z,1.07
2018-06-29T22:10:34.533Z,1.10
2018-06-29T22:13:02.553Z,1.20
2018-06-29T22:15:30.590Z,1.33
2018-06-29T22:17:58.724Z,1.37
2018-06-29T22:20:26.877Z,1.20
2018-06-29T22:22:54.912Z,1.50
2018-06-29T22:25:22.835Z,0.97
2018-06-29T22:27:51.172Z,1.00
2018-06-29T22:30:20.181Z,1.07
2018-06-29T22:32:48.164Z,0.70
2018-06-29T22:35:16.569Z,1.33
2018-06-29T22:37:45.231Z,0.90
2018-06-29T22:40:13.582Z,0.77
2018-06-29T22:42:41.716Z,0.80
2018-06-29T22:45:10.006Z,0.97
2018-06-29T22:47:38.334Z,1.10
2018-06-29T22:50:06.478Z,0.80
2018-06-29T22:52:34.605Z,0.90
2018-06-29T22:55:03.328Z,0.90
2018-06-29T22:57:31.367Z,1.13
2018-06-29T22:59:59.489Z,0.73
2018-06-29T23:02:27.805Z,0.90
2018-06-29T23:04:56.028Z,0.60
2018-06-29T23:07:24.076Z,0.80
2018-06-29T23:09:52.961Z,0.67
2018-06-29T23:12:20.994Z,1.10
2018-06-29T23:14:49.119Z,0.50
2018-06-29T23:17:17.276Z,0.67
2018-06-29T23:19:46.116Z,0.50
2018-06-29T23:22:14.181Z,0.63
2018-06-29T23:24:46.050Z,2.10
2018-06-29T23:27:15.049Z,2.00
2018-06-29T23:29:43.134Z,1.10
2018-06-29T23:32:11.511Z,1.03
2018-06-29T23:34:39.798Z,1.93
2018-06-29T23:37:08.171Z,1.10
2018-06-29T23:39:36.282Z,0.77
2018-06-29T23:42:05.060Z,1.20
2018-06-29T23:44:33.431Z,0.70
2018-06-29T23:47:01.563Z,0.80
2018-06-29T23:49:29.848Z,0.60
2018-06-29T23:51:57.985Z,0.97
2018-06-29T23:54:26.021Z,0.80
2018-06-29T23:56:54.068Z,0.90
2018-06-29T23:59:22.123Z,0.67
